createdAt,value
2019-02-14T00:00:45.205Z,4.0
2019-02-14T00:03:01.405Z,4.0
2019-02-14T00:04:02.143Z,4.0
2019-02-14T00:05:02.865Z,3.9
2019-02-14T00:06:03.903Z,3.9
2019-02-14T00:07:04.767Z,3.9
2019-02-14T00:08:05.487Z,4.0
2019-02-14T00:10:21.690Z,3.9
2019-02-14T00:11:22.412Z,3.8
2019-02-14T00:12:23.183Z,3.9
2019-02-14T00:13:24.168Z,3.9
2019-02-14T00:15:40.353Z,3.8
2019-02-14T00:16:41.077Z,3.8
2019-02-14T00:17:41.862Z,3.7
2019-02-14T00:18:42.582Z,3.7
2019-02-14T00:19:43.553Z,3.6
2019-02-14T00:20:44.275Z,3.6
2019-02-14T00:21:45.012Z,3.6
2019-02-14T00:22:45.894Z,3.7
2019-02-14T00:23:46.615Z,3.6
2019-02-14T00:24:47.338Z,3.7
2019-02-14T00:27:03.621Z,3.5
2019-02-14T00:28:04.393Z,3.6
2019-02-14T00:29:05.368Z,3.5
2019-02-14T00:30:06.098Z,3.5
2019-02-14T00:31:06.882Z,3.5
2019-02-14T00:32:07.595Z,3.6
2019-02-14T00:33:08.323Z,3.5
2019-02-14T00:34:09.047Z,3.6
2019-02-14T00:38:56.246Z,3.6
2019-02-14T00:39:56.970Z,3.7
2019-02-14T00:40:57.742Z,3.6
2019-02-14T00:41:58.469Z,3.6
2019-02-14T00:42:59.182Z,3.6
2019-02-14T00:44:00.144Z,3.5
2019-02-14T00:46:16.386Z,3.5
2019-02-14T00:47:17.113Z,3.5
2019-02-14T00:48:17.845Z,3.5
2019-02-14T00:49:18.560Z,3.4
2019-02-14T00:50:19.282Z,3.4
2019-02-14T00:51:20.065Z,3.4
2019-02-14T00:52:20.786Z,3.4
2019-02-14T00:53:21.512Z,3.4
2019-02-14T00:54:22.240Z,3.3
2019-02-14T00:56:38.591Z,3.2
2019-02-14T00:57:39.331Z,3.2
2019-02-14T00:58:40.059Z,3.1
2019-02-14T00:59:40.774Z,3.2
2019-02-14T01:00:41.505Z,3.1
2019-02-14T01:01:42.286Z,3.1
2019-02-14T01:02:43.046Z,3.2
2019-02-14T01:03:43.767Z,3.1
2019-02-14T01:05:59.961Z,3.1
2019-02-14T01:07:00.689Z,3.1
2019-02-14T01:08:01.566Z,3.2
2019-02-14T01:09:02.548Z,3.2
2019-02-14T01:10:03.279Z,3.2
2019-02-14T01:11:03.993Z,3.2
2019-02-14T01:13:20.229Z,3.4
2019-02-14T01:14:21.217Z,3.4
2019-02-14T01:15:22.060Z,3.4
2019-02-14T01:16:22.823Z,3.4
2019-02-14T01:17:23.559Z,3.3
2019-02-14T01:18:24.328Z,3.5
2019-02-14T01:19:25.054Z,3.5
2019-02-14T01:20:25.769Z,3.5
2019-02-14T01:21:26.584Z,3.4
2019-02-14T01:23:42.915Z,3.5
2019-02-14T01:24:43.633Z,3.6
2019-02-14T01:25:44.348Z,3.5
2019-02-14T01:26:45.082Z,3.5
2019-02-14T01:27:45.803Z,3.6
2019-02-14T01:28:46.579Z,3.6
2019-02-14T01:29:47.298Z,3.6
2019-02-14T01:30:48.017Z,3.6
2019-02-14T01:33:04.259Z,3.5
2019-02-14T01:34:04.987Z,3.5
2019-02-14T01:35:05.714Z,3.4
2019-02-14T01:36:06.432Z,3.5
2019-02-14T01:37:07.392Z,3.6
2019-02-14T01:38:08.177Z,3.6
2019-02-14T01:40:24.415Z,3.6
2019-02-14T01:42:40.612Z,3.6
2019-02-14T01:44:56.856Z,3.6
2019-02-14T01:45:57.585Z,3.5
2019-02-14T01:46:58.299Z,3.6
2019-02-14T01:47:59.029Z,3.6
2019-02-14T01:50:15.263Z,3.5
2019-02-14T01:51:15.995Z,3.5
2019-02-14T01:52:16.710Z,3.3
2019-02-14T01:53:17.429Z,3.4
2019-02-14T01:54:18.152Z,3.4
2019-02-14T01:55:18.932Z,3.3
2019-02-14T01:56:19.653Z,3.4
2019-02-14T01:57:20.376Z,3.3
2019-02-14T01:59:36.670Z,3.2
2019-02-14T02:00:37.436Z,3.1
2019-02-14T02:01:38.155Z,3.2
2019-02-14T02:02:39.132Z,3.1
2019-02-14T02:03:39.898Z,3.2
2019-02-14T02:04:40.633Z,3.2
2019-02-14T02:05:41.777Z,3.1
2019-02-14T02:06:42.501Z,3.2
2019-02-14T02:07:43.283Z,3.1
2019-02-14T02:09:59.528Z,3.0
2019-02-14T02:11:00.242Z,3.0
2019-02-14T02:12:01.024Z,3.1
2019-02-14T02:13:01.794Z,3.0
2019-02-14T02:14:02.716Z,3.0
2019-02-14T02:15:03.445Z,3.0
2019-02-14T02:16:04.220Z,3.0
2019-02-14T02:17:04.951Z,2.9
2019-02-14T02:18:05.725Z,3.0
2019-02-14T02:19:06.451Z,3.1
2019-02-14T02:20:07.178Z,3.1
2019-02-14T02:22:23.688Z,3.1
2019-02-14T02:23:24.389Z,3.2
2019-02-14T02:24:25.171Z,3.2
2019-02-14T02:26:41.360Z,3.0
2019-02-14T02:27:42.086Z,3.1
2019-02-14T02:28:42.814Z,3.2
2019-02-14T02:29:43.577Z,3.2
2019-02-14T02:30:44.296Z,3.2
2019-02-14T02:31:45.102Z,3.1
2019-02-14T02:34:01.359Z,3.2
2019-02-14T02:35:02.073Z,3.2
2019-02-14T02:36:02.858Z,3.2
2019-02-14T02:37:03.600Z,3.2
2019-02-14T02:38:04.322Z,3.2
2019-02-14T02:39:05.048Z,3.1
2019-02-14T02:40:05.775Z,3.1
2019-02-14T02:41:06.653Z,3.1
2019-02-14T02:42:07.368Z,3.1
2019-02-14T02:44:23.555Z,3.1
2019-02-14T02:45:24.273Z,3.1
2019-02-14T02:47:40.518Z,3.0
2019-02-14T02:48:41.235Z,3.0
2019-02-14T02:49:41.959Z,3.0
2019-02-14T02:50:42.680Z,3.0
2019-02-14T02:51:43.413Z,3.1
2019-02-14T02:52:44.509Z,3.1
2019-02-14T02:53:45.238Z,3.2
2019-02-14T02:54:45.968Z,3.2
2019-02-14T02:55:46.681Z,3.1
2019-02-14T02:56:47.400Z,3.2
2019-02-14T02:57:48.289Z,3.1
2019-02-14T02:58:49.007Z,3.1
2019-02-14T02:59:49.736Z,3.2
2019-02-14T03:00:50.474Z,3.1
2019-02-14T03:03:07.016Z,3.1
2019-02-14T03:04:07.735Z,3.1
2019-02-14T03:05:08.459Z,3.1
2019-02-14T03:06:10.811Z,3.0
2019-02-14T03:07:09.909Z,3.0
2019-02-14T03:08:10.676Z,3.0
2019-02-14T03:09:11.445Z,2.9
2019-02-14T03:10:12.172Z,3.0
2019-02-14T03:12:28.391Z,3.0
2019-02-14T03:13:29.092Z,3.0
2019-02-14T03:14:29.866Z,2.9
2019-02-14T03:15:30.585Z,3.0
2019-02-14T03:17:46.769Z,2.9
2019-02-14T03:18:47.549Z,3.0
2019-02-14T03:19:48.333Z,2.9
2019-02-14T03:20:49.050Z,2.9
2019-02-14T03:21:50.057Z,2.9
2019-02-14T03:22:50.779Z,3.0
2019-02-14T03:23:51.499Z,2.9
2019-02-14T03:24:52.277Z,2.9
2019-02-14T03:28:23.942Z,2.8
2019-02-14T03:33:11.129Z,2.5
2019-02-14T03:34:11.954Z,2.5
2019-02-14T03:35:12.707Z,2.6
2019-02-14T03:36:18.892Z,2.5
2019-02-14T03:37:14.302Z,2.6
2019-02-14T03:38:15.026Z,2.6
2019-02-14T03:39:16.325Z,2.7
2019-02-14T03:41:32.577Z,2.6
2019-02-14T03:42:33.287Z,2.6
2019-02-14T03:43:34.012Z,2.6
2019-02-14T03:44:34.782Z,2.5
2019-02-14T03:45:35.509Z,2.5
2019-02-14T03:46:36.276Z,2.6
2019-02-14T03:47:36.991Z,2.5
2019-02-14T03:48:37.722Z,2.5
2019-02-14T03:49:38.461Z,2.5
2019-02-14T03:50:39.172Z,2.5
2019-02-14T03:51:40.686Z,2.5
2019-02-14T03:53:56.157Z,2.6
2019-02-14T03:54:56.926Z,2.7
2019-02-14T03:55:57.641Z,2.8
2019-02-14T03:56:58.369Z,2.9
2019-02-14T03:57:59.505Z,2.9
2019-02-14T03:59:00.233Z,2.9
2019-02-14T04:01:16.678Z,2.9
2019-02-14T04:02:17.394Z,2.8
2019-02-14T04:03:18.158Z,2.8
2019-02-14T04:04:18.890Z,2.8
2019-02-14T04:05:19.604Z,2.7
2019-02-14T04:06:27.172Z,2.6
2019-02-14T04:07:21.054Z,2.6
2019-02-14T04:08:21.817Z,2.6
2019-02-14T04:09:22.540Z,2.7
2019-02-14T04:10:23.278Z,2.8
2019-02-14T04:11:24.001Z,2.7
2019-02-14T04:13:40.241Z,2.7
2019-02-14T04:14:40.954Z,2.7
2019-02-14T04:15:41.910Z,2.7
2019-02-14T04:16:42.642Z,2.6
2019-02-14T04:17:43.369Z,2.6
2019-02-14T04:18:44.129Z,2.7
2019-02-14T04:19:45.119Z,2.7
2019-02-14T04:20:45.899Z,2.8
2019-02-14T04:21:46.629Z,2.7
2019-02-14T04:22:47.597Z,2.8
2019-02-14T04:23:48.635Z,2.7
2019-02-14T04:24:49.346Z,2.8
2019-02-14T04:25:50.119Z,2.8
2019-02-14T04:26:51.125Z,2.7
2019-02-14T04:27:51.856Z,2.7
2019-02-14T04:28:52.576Z,2.7
2019-02-14T04:29:53.302Z,2.7
2019-02-14T04:30:54.071Z,2.7
2019-02-14T04:31:55.108Z,2.7
2019-02-14T04:32:55.871Z,2.7
2019-02-14T04:35:12.070Z,2.6
2019-02-14T04:36:12.783Z,2.6
2019-02-14T04:37:13.552Z,2.5
2019-02-14T04:38:14.263Z,2.5
2019-02-14T04:39:14.983Z,2.5
2019-02-14T04:40:15.712Z,2.4
2019-02-14T04:41:16.416Z,2.5
2019-02-14T04:43:32.670Z,2.5
2019-02-14T04:44:33.386Z,2.5
2019-02-14T04:45:34.105Z,2.4
2019-02-14T04:46:35.073Z,2.5
2019-02-14T04:48:51.312Z,2.5
2019-02-14T04:49:52.283Z,2.4
2019-02-14T04:50:52.998Z,2.5
2019-02-14T04:51:53.717Z,2.4
2019-02-14T04:52:54.437Z,2.5
2019-02-14T04:55:11.028Z,2.5
2019-02-14T04:56:11.733Z,2.6
2019-02-14T04:57:12.452Z,2.6
2019-02-14T04:58:13.177Z,2.7
2019-02-14T04:59:13.894Z,2.7
2019-02-14T05:00:14.708Z,2.6
2019-02-14T05:01:15.754Z,2.6
2019-02-14T05:02:16.472Z,2.6
2019-02-14T05:03:17.188Z,2.6
2019-02-14T05:04:18.155Z,2.8
2019-02-14T05:05:18.920Z,2.8
2019-02-14T05:07:35.114Z,2.8
2019-02-14T05:08:35.827Z,2.8
2019-02-14T05:09:36.542Z,2.7
2019-02-14T05:10:37.424Z,2.8
2019-02-14T05:11:38.130Z,2.8
2019-02-14T05:12:38.861Z,2.8
2019-02-14T05:13:39.580Z,2.8
2019-02-14T05:15:55.830Z,2.8
2019-02-14T05:16:56.543Z,2.8
2019-02-14T05:17:57.283Z,2.7
2019-02-14T05:18:58.055Z,2.7
2019-02-14T05:19:58.779Z,2.6
2019-02-14T05:20:59.552Z,2.6
2019-02-14T05:22:00.274Z,2.6
2019-02-14T05:23:01.008Z,2.6
2019-02-14T05:24:01.718Z,2.6
2019-02-14T05:25:02.445Z,2.6
2019-02-14T05:26:03.211Z,2.5
2019-02-14T05:27:03.979Z,2.4
2019-02-14T05:29:20.171Z,2.4
2019-02-14T05:31:37.579Z,2.3
2019-02-14T05:32:37.190Z,2.3
2019-02-14T05:33:37.966Z,2.2
2019-02-14T05:34:38.679Z,2.3
2019-02-14T05:35:39.411Z,2.2
2019-02-14T05:36:40.179Z,2.2
2019-02-14T05:37:40.966Z,2.1
2019-02-14T05:38:41.688Z,2.2
2019-02-14T05:39:42.406Z,2.0
2019-02-14T05:41:58.602Z,2.2
2019-02-14T05:42:59.382Z,2.2
2019-02-14T05:44:00.105Z,2.2
2019-02-14T05:45:00.823Z,2.2
2019-02-14T05:46:01.548Z,2.2
2019-02-14T05:47:02.274Z,2.2
2019-02-14T05:48:03.050Z,2.1
2019-02-14T05:49:03.822Z,2.1
2019-02-14T05:51:20.029Z,2.1
2019-02-14T05:52:20.739Z,2.1
2019-02-14T05:53:21.557Z,2.0
2019-02-14T05:54:22.317Z,2.0
2019-02-14T05:55:23.035Z,1.9
2019-02-14T05:57:39.215Z,1.9
2019-02-14T05:58:39.996Z,1.9
2019-02-14T05:59:40.726Z,1.8
2019-02-14T06:00:41.446Z,1.8
2019-02-14T06:01:42.161Z,1.8
2019-02-14T06:02:42.880Z,1.8
2019-02-14T06:04:59.157Z,1.8
2019-02-14T06:05:59.894Z,1.8
2019-02-14T06:07:01.299Z,1.8
2019-02-14T06:08:01.338Z,1.9
2019-02-14T06:09:02.211Z,1.9
2019-02-14T06:10:02.932Z,1.8
2019-02-14T06:11:03.651Z,1.8
2019-02-14T06:12:04.370Z,1.9
2019-02-14T06:14:20.844Z,1.9
2019-02-14T06:15:21.580Z,2.0
2019-02-14T06:16:23.406Z,2.0
2019-02-14T06:17:23.017Z,2.0
2019-02-14T06:18:23.784Z,2.0
2019-02-14T06:19:24.506Z,1.9
2019-02-14T06:21:40.739Z,2.0
2019-02-14T06:22:41.477Z,2.0
2019-02-14T06:23:42.255Z,1.9
2019-02-14T06:24:42.982Z,1.9
2019-02-14T06:25:43.701Z,2.0
2019-02-14T06:26:44.429Z,2.0
2019-02-14T06:27:45.191Z,1.9
2019-02-14T06:28:45.955Z,1.9
2019-02-14T06:29:46.716Z,1.9
2019-02-14T06:30:47.432Z,2.0
2019-02-14T06:33:03.819Z,1.9
2019-02-14T06:34:04.806Z,2.0
2019-02-14T06:35:05.531Z,2.0
2019-02-14T06:37:22.018Z,1.9
2019-02-14T06:38:22.783Z,1.9
2019-02-14T06:39:24.236Z,1.9
2019-02-14T06:41:41.109Z,2.0
2019-02-14T06:45:13.188Z,2.0
2019-02-14T06:46:13.910Z,2.0
2019-02-14T06:47:14.636Z,2.1
2019-02-14T06:48:15.367Z,2.1
2019-02-14T06:49:16.086Z,2.1
2019-02-14T06:50:16.863Z,2.2
2019-02-14T06:52:33.118Z,2.2
2019-02-14T06:53:33.840Z,2.3
2019-02-14T06:57:05.613Z,2.3
2019-02-14T06:58:06.349Z,2.4
2019-02-14T06:59:07.071Z,2.3
2019-02-14T07:01:23.376Z,2.5
2019-02-14T07:02:24.093Z,2.4
2019-02-14T07:04:40.341Z,2.6
2019-02-14T07:06:56.532Z,2.7
2019-02-14T07:07:57.249Z,2.8
2019-02-14T07:08:57.983Z,2.9
2019-02-14T07:09:58.764Z,2.9
2019-02-14T07:10:59.539Z,3.0
2019-02-14T07:13:15.798Z,3.1
2019-02-14T07:14:16.524Z,3.0
2019-02-14T07:15:17.250Z,3.2
2019-02-14T07:16:18.032Z,3.2
2019-02-14T07:17:18.766Z,3.1
2019-02-14T07:18:19.490Z,3.2
2019-02-14T07:19:20.228Z,3.1
2019-02-14T07:21:36.492Z,3.2
2019-02-14T07:22:37.224Z,3.3
2019-02-14T07:23:37.953Z,3.4
2019-02-14T07:24:38.724Z,3.4
2019-02-14T07:25:39.402Z,3.4
2019-02-14T07:26:40.236Z,3.5
2019-02-14T07:27:40.967Z,3.6
2019-02-14T07:28:41.692Z,3.6
2019-02-14T07:29:42.450Z,3.6
2019-02-14T07:30:43.651Z,3.7
2019-02-14T07:32:59.899Z,3.6
2019-02-14T07:34:00.630Z,3.6
2019-02-14T07:35:01.353Z,3.6
2019-02-14T07:36:02.090Z,3.7
2019-02-14T07:37:02.860Z,3.8
2019-02-14T07:38:03.656Z,3.8
2019-02-14T07:39:04.381Z,3.7
2019-02-14T07:41:20.882Z,3.8
2019-02-14T07:42:21.621Z,3.9
2019-02-14T07:43:22.719Z,4.0
2019-02-14T07:44:23.468Z,3.8
2019-02-14T07:45:24.197Z,3.9
2019-02-14T07:47:40.402Z,4.0
2019-02-14T07:48:41.181Z,4.0
2019-02-14T07:49:42.463Z,4.1
2019-02-14T07:50:43.186Z,4.1
2019-02-14T07:51:43.925Z,4.2
2019-02-14T07:52:44.643Z,4.2
2019-02-14T07:53:45.517Z,4.3
2019-02-14T07:54:46.243Z,4.3
2019-02-14T07:55:47.239Z,4.3
2019-02-14T07:58:03.462Z,4.4
2019-02-14T07:59:04.231Z,4.4
2019-02-14T08:00:04.963Z,4.5
2019-02-14T08:01:05.707Z,4.6
2019-02-14T08:02:06.454Z,4.7
2019-02-14T08:03:07.183Z,4.7
2019-02-14T08:04:07.969Z,4.7
2019-02-14T08:05:08.746Z,4.7
2019-02-14T08:09:55.961Z,4.9
2019-02-14T08:10:56.695Z,4.9
2019-02-14T08:11:57.481Z,4.9
2019-02-14T08:12:58.210Z,5.1
2019-02-14T08:13:58.952Z,5.1
2019-02-14T08:14:59.668Z,5.1
2019-02-14T08:16:00.549Z,5.2
2019-02-14T08:17:01.270Z,5.1
2019-02-14T08:19:17.474Z,5.3
2019-02-14T08:20:18.199Z,5.3
2019-02-14T08:21:18.989Z,5.4
2019-02-14T08:22:19.708Z,5.5
2019-02-14T08:23:20.442Z,5.5
2019-02-14T08:24:21.175Z,5.6
2019-02-14T08:25:21.935Z,5.6
2019-02-14T08:26:22.807Z,5.6
2019-02-14T08:28:39.009Z,5.6
2019-02-14T08:29:39.740Z,5.7
2019-02-14T08:30:40.461Z,5.7
2019-02-14T08:31:41.247Z,5.7
2019-02-14T08:32:42.038Z,5.7
2019-02-14T08:33:42.763Z,5.8
2019-02-14T08:34:43.492Z,5.8
2019-02-14T08:35:44.225Z,5.9
2019-02-14T08:38:00.577Z,6.0
2019-02-14T08:39:01.306Z,6.1
2019-02-14T08:40:02.036Z,6.1
2019-02-14T08:41:03.449Z,6.2
2019-02-14T08:42:04.394Z,6.2
2019-02-14T08:43:05.169Z,6.3
2019-02-14T08:44:05.911Z,6.3
2019-02-14T08:45:06.653Z,6.5
2019-02-14T08:47:22.916Z,6.5
2019-02-14T08:48:23.650Z,6.6
2019-02-14T08:50:40.148Z,6.7
2019-02-14T08:52:56.421Z,6.7
2019-02-14T08:53:57.147Z,6.8
2019-02-14T08:54:57.928Z,6.8
2019-02-14T08:57:14.273Z,6.8
2019-02-14T08:58:15.055Z,6.8
2019-02-14T08:59:15.783Z,6.9
2019-02-14T09:00:16.515Z,6.9
2019-02-14T09:01:17.244Z,7.1
2019-02-14T09:02:17.969Z,7.0
2019-02-14T09:03:18.863Z,7.1
2019-02-14T09:04:19.906Z,7.2
2019-02-14T09:06:36.688Z,7.3
2019-02-14T09:07:37.762Z,7.4
2019-02-14T09:08:38.549Z,7.7
2019-02-14T09:09:39.437Z,7.8
2019-02-14T09:11:55.658Z,8.1
2019-02-14T09:12:56.639Z,8.1
2019-02-14T09:13:57.695Z,8.2
2019-02-14T09:14:58.471Z,8.3
2019-02-14T09:15:59.258Z,8.5
2019-02-14T09:16:59.993Z,8.5
2019-02-14T09:19:16.252Z,8.5
2019-02-14T09:20:17.029Z,8.7
2019-02-14T09:21:17.752Z,8.8
2019-02-14T09:22:18.482Z,8.7
2019-02-14T09:23:19.220Z,8.6
2019-02-14T09:24:20.269Z,8.8
2019-02-14T09:25:21.133Z,8.8
2019-02-14T09:27:37.401Z,9.0
2019-02-14T09:28:38.124Z,8.8
2019-02-14T09:29:38.866Z,8.8
2019-02-14T09:30:39.586Z,8.7
2019-02-14T09:31:40.299Z,8.7
2019-02-14T09:32:41.144Z,8.8
2019-02-14T09:33:41.892Z,9.0
2019-02-14T09:34:42.612Z,8.9
2019-02-14T09:35:43.359Z,8.9
2019-02-14T09:38:03.415Z,8.6
2019-02-14T09:39:00.410Z,8.7
2019-02-14T09:40:01.145Z,8.7
2019-02-14T09:41:01.871Z,8.7
2019-02-14T09:42:02.597Z,8.8
2019-02-14T09:43:03.551Z,8.9
2019-02-14T09:45:19.763Z,9.1
2019-02-14T09:46:20.809Z,9.1
2019-02-14T09:48:37.323Z,9.1
2019-02-14T09:50:53.577Z,9.1
2019-02-14T09:51:54.304Z,9.1
2019-02-14T09:52:55.230Z,9.1
2019-02-14T09:53:56.006Z,9.2
2019-02-14T09:56:12.223Z,9.2
2019-02-14T09:57:13.195Z,9.2
2019-02-14T09:58:13.943Z,9.2
2019-02-14T09:59:14.714Z,9.1
2019-02-14T10:00:15.453Z,9.1
2019-02-14T10:01:16.386Z,9.3
2019-02-14T10:02:17.109Z,9.3
2019-02-14T10:03:17.872Z,9.4
2019-02-14T10:04:19.206Z,9.5
2019-02-14T10:06:36.934Z,9.4
2019-02-14T10:07:36.177Z,9.5
2019-02-14T10:08:37.933Z,9.5
2019-02-14T10:09:38.032Z,9.5
2019-02-14T10:11:54.295Z,9.7
2019-02-14T10:12:55.306Z,9.8
2019-02-14T10:13:56.708Z,9.8
2019-02-14T10:14:57.578Z,9.9
2019-02-14T10:15:58.410Z,10.0
2019-02-14T10:16:59.343Z,9.9
2019-02-14T10:19:15.547Z,10.0
2019-02-14T10:20:16.328Z,9.9
2019-02-14T10:21:17.067Z,9.9
2019-02-14T10:22:17.850Z,10.0
2019-02-14T10:23:18.589Z,10.0
2019-02-14T10:25:34.783Z,9.8
2019-02-14T10:26:35.549Z,9.8
2019-02-14T10:27:36.290Z,9.9
2019-02-14T10:28:37.037Z,9.9
2019-02-14T10:29:37.754Z,9.8
2019-02-14T10:30:40.156Z,9.8
2019-02-14T10:32:55.069Z,9.8
2019-02-14T10:33:55.804Z,9.9
2019-02-14T10:34:56.550Z,10.0
2019-02-14T10:35:57.271Z,9.9
2019-02-14T10:36:58.017Z,10.0
2019-02-14T10:37:58.796Z,10.0
2019-02-14T10:38:59.534Z,9.8
2019-02-14T10:40:00.362Z,9.9
2019-02-14T10:42:16.470Z,9.9
2019-02-14T10:43:17.254Z,10.1
2019-02-14T10:44:17.998Z,10.1
2019-02-14T10:45:18.787Z,10.2
2019-02-14T10:46:19.524Z,10.3
2019-02-14T10:47:20.261Z,10.3
2019-02-14T10:49:36.610Z,10.5
2019-02-14T10:50:37.396Z,10.4
2019-02-14T10:51:38.119Z,10.5
2019-02-14T10:52:38.862Z,10.7
2019-02-14T10:53:39.666Z,10.8
2019-02-14T10:54:40.362Z,11.0
2019-02-14T10:55:41.131Z,11.0
2019-02-14T10:57:57.655Z,10.9
2019-02-14T10:58:59.134Z,10.9
2019-02-14T10:59:59.135Z,10.9
2019-02-14T11:01:00.285Z,10.9
2019-02-14T11:02:01.107Z,11.1
2019-02-14T11:03:01.840Z,11.1
2019-02-14T11:05:18.207Z,11.2
2019-02-14T11:06:19.157Z,11.4
2019-02-14T11:07:19.954Z,11.4
2019-02-14T11:08:20.690Z,11.6
2019-02-14T11:09:21.424Z,11.7
2019-02-14T11:10:22.220Z,11.7
2019-02-14T11:12:38.531Z,11.5
2019-02-14T11:13:39.327Z,11.7
2019-02-14T11:14:40.070Z,11.8
2019-02-14T11:15:41.614Z,11.8
2019-02-14T11:16:42.438Z,12.1
2019-02-14T11:17:43.169Z,12.3
2019-02-14T11:19:59.440Z,11.9
2019-02-14T11:21:00.429Z,12.2
2019-02-14T11:22:01.165Z,12.1
2019-02-14T11:23:02.446Z,12.3
2019-02-14T11:24:03.215Z,12.2
2019-02-14T11:25:03.954Z,12.5
2019-02-14T11:27:21.192Z,12.8
2019-02-14T11:28:21.913Z,12.9
2019-02-14T11:29:22.704Z,12.7
2019-02-14T11:30:23.448Z,13.0
2019-02-14T11:31:24.489Z,13.2
2019-02-14T11:32:25.269Z,13.1
2019-02-14T11:34:41.533Z,12.8
2019-02-14T11:35:42.263Z,12.5
2019-02-14T11:36:43.005Z,12.5
2019-02-14T11:37:43.985Z,12.4
2019-02-14T11:38:44.739Z,12.6
2019-02-14T11:39:45.534Z,12.5
2019-02-14T11:40:46.260Z,12.5
2019-02-14T11:43:02.479Z,12.4
2019-02-14T11:44:03.269Z,12.5
2019-02-14T11:45:04.047Z,12.3
2019-02-14T11:47:20.412Z,12.5
2019-02-14T11:49:36.619Z,12.7
2019-02-14T11:50:37.372Z,12.9
2019-02-14T11:52:53.733Z,13.2
2019-02-14T11:53:54.482Z,13.3
2019-02-14T11:54:55.218Z,13.5
2019-02-14T11:55:55.990Z,13.2
2019-02-14T11:56:56.698Z,13.3
2019-02-14T11:57:57.589Z,13.5
2019-02-14T11:58:58.318Z,13.7
2019-02-14T11:59:59.084Z,13.5
2019-02-14T12:02:15.323Z,13.9
2019-02-14T12:03:16.371Z,14.0
2019-02-14T12:04:17.093Z,14.2
2019-02-14T12:05:17.832Z,14.1
2019-02-14T12:06:18.570Z,13.9
2019-02-14T12:07:19.312Z,14.3
2019-02-14T12:09:35.578Z,14.4
2019-02-14T12:10:36.310Z,14.5
2019-02-14T12:11:37.044Z,14.7
2019-02-14T12:12:37.787Z,14.6
2019-02-14T12:13:39.592Z,14.6
2019-02-14T12:14:39.312Z,14.6
2019-02-14T12:15:40.049Z,14.5
2019-02-14T12:16:40.780Z,14.6
2019-02-14T12:18:57.050Z,14.6
2019-02-14T12:19:58.055Z,14.6
2019-02-14T12:20:58.775Z,14.8
2019-02-14T12:21:59.515Z,14.5
2019-02-14T12:23:00.249Z,14.4
2019-02-14T12:24:01.083Z,14.2
2019-02-14T12:26:17.292Z,14.1
2019-02-14T12:27:18.042Z,13.8
2019-02-14T12:28:18.771Z,13.7
2019-02-14T12:29:19.553Z,13.5
2019-02-14T12:30:20.339Z,13.5
2019-02-14T12:31:21.078Z,13.1
2019-02-14T12:32:22.173Z,13.2
2019-02-14T12:34:38.459Z,13.5
2019-02-14T12:35:39.203Z,13.8
2019-02-14T12:36:39.947Z,13.9
2019-02-14T12:37:40.681Z,14.2
2019-02-14T12:38:41.432Z,13.9
2019-02-14T12:39:42.213Z,14.0
2019-02-14T12:40:43.002Z,14.2
2019-02-14T12:42:59.223Z,14.2
2019-02-14T12:44:00.313Z,14.4
2019-02-14T12:45:01.361Z,14.4
2019-02-14T12:46:02.117Z,13.9
2019-02-14T12:47:02.908Z,14.3
2019-02-14T12:48:03.642Z,14.2
2019-02-14T12:49:04.392Z,14.3
2019-02-14T12:51:20.665Z,14.4
2019-02-14T12:52:21.412Z,14.5
2019-02-14T12:53:22.142Z,14.5
2019-02-14T12:54:22.880Z,15.0
2019-02-14T12:55:23.661Z,14.8
2019-02-14T12:56:24.417Z,14.9
2019-02-14T12:58:40.662Z,15.2
2019-02-14T13:00:56.944Z,14.9
2019-02-14T13:03:13.165Z,15.2
2019-02-14T13:04:13.951Z,14.5
2019-02-14T13:05:14.691Z,14.3
2019-02-14T13:06:15.430Z,14.0
2019-02-14T13:07:16.148Z,14.0
2019-02-14T13:08:17.044Z,14.1
2019-02-14T13:10:33.263Z,14.2
2019-02-14T13:11:34.029Z,14.3
2019-02-14T13:12:34.758Z,14.5
2019-02-14T13:13:35.593Z,14.6
2019-02-14T13:14:36.296Z,14.4
2019-02-14T13:15:37.035Z,14.1
2019-02-14T13:17:53.473Z,14.3
2019-02-14T13:18:54.253Z,14.5
2019-02-14T13:19:56.876Z,14.6
2019-02-14T13:20:55.881Z,14.8
2019-02-14T13:21:56.628Z,14.7
2019-02-14T13:22:57.435Z,14.6
2019-02-14T13:23:58.169Z,14.6
2019-02-14T13:26:14.448Z,14.8
2019-02-14T13:27:15.171Z,15.0
2019-02-14T13:28:15.917Z,15.2
2019-02-14T13:29:16.661Z,15.3
2019-02-14T13:30:17.585Z,15.3
2019-02-14T13:31:18.858Z,15.4
2019-02-14T13:33:35.193Z,14.7
2019-02-14T13:34:35.925Z,14.3
2019-02-14T13:35:36.664Z,13.7
2019-02-14T13:36:37.468Z,13.6
2019-02-14T13:37:39.999Z,13.5
2019-02-14T13:38:38.940Z,13.4
2019-02-14T13:40:55.228Z,13.5
2019-02-14T13:41:56.271Z,13.6
2019-02-14T13:42:57.063Z,13.4
2019-02-14T13:43:57.791Z,13.4
2019-02-14T13:44:58.526Z,13.4
2019-02-14T13:45:59.320Z,13.1
2019-02-14T13:47:00.495Z,13.0
2019-02-14T13:49:16.821Z,13.1
2019-02-14T13:50:17.555Z,13.1
2019-02-14T13:51:18.349Z,13.1
2019-02-14T13:52:19.078Z,13.1
2019-02-14T13:53:19.888Z,13.1
2019-02-14T13:55:36.117Z,13.1
2019-02-14T13:56:37.753Z,13.1
2019-02-14T13:57:39.326Z,13.1
2019-02-14T13:58:40.219Z,13.2
2019-02-14T13:59:41.099Z,13.2
2019-02-14T14:00:41.891Z,13.1
2019-02-14T14:02:58.150Z,13.1
2019-02-14T14:03:59.679Z,13.1
2019-02-14T14:05:00.464Z,13.0
2019-02-14T14:06:01.198Z,13.3
2019-02-14T14:07:01.939Z,13.2
2019-02-14T14:08:02.677Z,13.4
2019-02-14T14:10:19.894Z,13.3
2019-02-14T14:11:20.635Z,13.3
2019-02-14T14:12:21.383Z,13.4
2019-02-14T14:13:22.119Z,13.4
2019-02-14T14:14:22.849Z,13.5
2019-02-14T14:15:23.733Z,13.4
2019-02-14T14:17:39.969Z,13.6
2019-02-14T14:18:40.704Z,13.5
2019-02-14T14:19:41.436Z,13.6
2019-02-14T14:20:42.235Z,13.5
2019-02-14T14:21:42.967Z,13.6
2019-02-14T14:22:43.715Z,13.6
2019-02-14T14:25:00.304Z,13.7
2019-02-14T14:26:01.089Z,13.7
2019-02-14T14:27:01.822Z,13.7
2019-02-14T14:28:02.614Z,13.7
2019-02-14T14:29:03.347Z,13.8
2019-02-14T14:31:19.667Z,13.7
2019-02-14T14:32:20.419Z,13.7
2019-02-14T14:33:21.303Z,13.7
2019-02-14T14:34:22.060Z,13.7
2019-02-14T14:35:22.795Z,13.7
2019-02-14T14:36:23.554Z,13.7
2019-02-14T14:37:24.283Z,13.5
2019-02-14T14:39:47.647Z,13.6
2019-02-14T14:40:41.436Z,13.4
2019-02-14T14:41:42.175Z,13.4
2019-02-14T14:42:42.926Z,13.2
2019-02-14T14:43:43.722Z,13.2
2019-02-14T14:44:44.456Z,13.3
2019-02-14T14:47:00.687Z,13.2
2019-02-14T14:48:01.751Z,13.1
2019-02-14T14:49:02.580Z,13.1
2019-02-14T14:50:03.336Z,13.1
2019-02-14T14:51:04.073Z,13.1
2019-02-14T14:53:20.689Z,13.2
2019-02-14T14:54:21.530Z,13.3
2019-02-14T14:56:37.761Z,13.2
2019-02-14T14:58:54.031Z,13.2
2019-02-14T14:59:54.763Z,13.1
2019-02-14T15:02:10.985Z,12.7
2019-02-14T15:03:11.720Z,12.6
2019-02-14T15:04:12.754Z,12.6
2019-02-14T15:05:13.490Z,12.5
2019-02-14T15:06:14.227Z,12.4
2019-02-14T15:07:14.963Z,12.4
2019-02-14T15:08:15.702Z,12.3
2019-02-14T15:09:16.518Z,12.2
2019-02-14T15:11:32.864Z,12.0
2019-02-14T15:12:33.646Z,11.9
2019-02-14T15:13:34.386Z,11.9
2019-02-14T15:14:35.125Z,11.8
2019-02-14T15:15:35.869Z,11.8
2019-02-14T15:16:36.650Z,11.7
2019-02-14T15:17:37.393Z,11.7
2019-02-14T15:18:38.122Z,11.7
2019-02-14T15:20:54.488Z,11.5
2019-02-14T15:21:55.234Z,11.4
2019-02-14T15:22:56.515Z,11.3
2019-02-14T15:23:56.700Z,11.3
2019-02-14T15:24:57.429Z,11.2
2019-02-14T15:25:58.219Z,11.1
2019-02-14T15:28:14.526Z,10.9
2019-02-14T15:29:15.235Z,11.0
2019-02-14T15:30:15.976Z,10.9
2019-02-14T15:31:16.702Z,10.9
2019-02-14T15:32:17.496Z,10.8
2019-02-14T15:33:18.235Z,10.8
2019-02-14T15:35:34.468Z,10.5
2019-02-14T15:36:35.348Z,10.5
2019-02-14T15:37:36.078Z,10.4
2019-02-14T15:38:37.139Z,10.4
2019-02-14T15:39:37.537Z,10.3
2019-02-14T15:40:38.281Z,10.4
2019-02-14T15:41:39.056Z,10.3
2019-02-14T15:43:55.279Z,10.1
2019-02-14T15:44:55.997Z,10.1
2019-02-14T15:45:56.740Z,10.0
2019-02-14T15:46:57.771Z,10.0
2019-02-14T15:47:58.635Z,9.9
2019-02-14T15:50:15.126Z,9.7
2019-02-14T15:51:17.772Z,9.7
2019-02-14T15:52:16.711Z,9.6
2019-02-14T15:53:19.126Z,9.5
2019-02-14T15:54:18.377Z,9.6
2019-02-14T15:55:19.426Z,9.5
2019-02-14T15:57:35.336Z,9.6
2019-02-14T15:58:36.152Z,9.5
2019-02-14T15:59:36.884Z,9.4
2019-02-14T16:00:37.870Z,9.3
2019-02-14T16:01:39.704Z,9.2
2019-02-14T16:02:39.328Z,9.3
2019-02-14T16:03:40.700Z,9.2
2019-02-14T16:05:56.329Z,9.2
2019-02-14T16:06:57.061Z,9.1
2019-02-14T16:07:57.791Z,9.0
2019-02-14T16:08:58.566Z,9.0
2019-02-14T16:10:01.053Z,9.0
2019-02-14T16:11:00.045Z,8.9
2019-02-14T16:12:00.784Z,8.8
2019-02-14T16:13:01.519Z,8.8
2019-02-14T16:15:17.786Z,8.7
2019-02-14T16:16:20.046Z,8.7
2019-02-14T16:17:19.248Z,8.6
2019-02-14T16:18:21.138Z,8.5
2019-02-14T16:19:20.705Z,8.5
2019-02-14T16:20:21.479Z,8.5
2019-02-14T16:21:22.206Z,8.4
2019-02-14T16:23:38.419Z,8.3
2019-02-14T16:24:41.238Z,8.4
2019-02-14T16:25:39.948Z,8.3
2019-02-14T16:26:40.729Z,8.2
2019-02-14T16:27:41.711Z,8.3
2019-02-14T16:28:42.447Z,8.2
2019-02-14T16:30:58.718Z,8.1
2019-02-14T16:31:59.770Z,8.1
2019-02-14T16:33:00.494Z,8.0
2019-02-14T16:34:01.216Z,8.0
2019-02-14T16:35:01.944Z,7.9
2019-02-14T16:36:02.982Z,7.8
2019-02-14T16:37:03.706Z,7.7
2019-02-14T16:39:20.801Z,7.5
2019-02-14T16:40:27.635Z,7.5
2019-02-14T16:41:21.421Z,7.5
2019-02-14T16:42:22.196Z,7.5
2019-02-14T16:43:22.931Z,7.3
2019-02-14T16:45:39.153Z,7.3
2019-02-14T16:46:39.907Z,7.3
2019-02-14T16:47:40.673Z,7.4
2019-02-14T16:48:41.397Z,7.4
2019-02-14T16:49:42.118Z,7.2